Time;durP1;ratioP1;P1;durP2;ratioP2;P2;SDS_P1;SDS_P2;PMS_P1;PMS_P2;Temp;Humidity;BMP_temperature;BMP_pressure;BME280_temperature;BME280_humidity;BME280_pressure;Samples;Min_cycle;Max_cycle;Signal;HPM_P1;HPM_P2
2023/11/25 01:48:34;;;;;;;;;;;;;;;;;;;;;
2023/11/25 04:20:28;;;;;;;3.13;2.65;;;;;;;;;;4698228;30;20259;-87
2023/11/25 04:22:58;;;;;;;2.90;1.85;;;1.90;99.90;;;;;;4798338;29;20239;-88
2023/11/25 04:25:25;;;;;;;2.60;2.40;;;2.00;99.90;;;;;;4884127;29;20363;-87
2023/11/25 04:27:51;;;;;;;3.22;2.53;;;1.80;99.90;;;;;;4903671;29;20213;-87
2023/11/25 04:30:18;;;;;;;8.88;2.78;;;;;;;;;;4950168;29;20232;-85
2023/11/25 04:32:47;;;;;;;6.32;2.33;;;2.10;99.90;;;;;;4962579;29;20194;-83
2023/11/25 04:35:14;;;;;;;4.93;2.17;;;;;;;;;;4962551;28;20222;-86
2023/11/25 04:37:44;;;;;;;2.85;2.42;;;2.00;1.00;;;;;;4959409;28;20547;-88
2023/11/25 04:40:12;;;;;;;4.65;2.75;;;2.00;1.00;;;;;;4953736;29;20227;-88
2023/11/25 04:42:39;;;;;;;3.60;2.63;;;;;;;;;;4960183;28;20235;-87
2023/11/25 04:45:14;;;;;;;2.38;2.10;;;1.80;1.00;;;;;;4953857;29;20255;-89
2023/11/25 04:47:42;;;;;;;12.00;3.35;;;;;;;;;;4954680;29;20229;-88
2023/11/25 04:50:09;;;;;;;4.40;2.65;;;2.00;1.00;;;;;;4955597;29;20218;-87
2023/11/25 04:52:36;;;;;;;2.55;2.15;;;2.10;1.00;;;;;;4943089;29;20262;-87
2023/11/25 04:55:06;;;;;;;6.47;2.50;;;1.90;1.00;;;;;;4941768;29;20318;-87
2023/11/25 04:57:33;;;;;;;3.88;2.00;;;2.00;1.00;;;;;;4941555;29;20299;-87
2023/11/25 04:59:59;;;;;;;2.65;2.42;;;2.00;1.00;;;;;;4942769;29;20238;-88
2023/11/25 05:02:26;;;;;;;2.25;2.05;;;2.20;1.00;;;;;;4942225;29;20622;-87
2023/11/25 05:04:53;;;;;;;3.53;2.30;;;1.60;99.90;;;;;;4941181;29;20306;-88
2023/11/25 05:07:21;;;;;;;2.03;1.92;;;2.20;1.00;;;;;;4940948;29;20246;-87
2023/11/25 05:09:48;;;;;;;5.82;2.40;;;2.10;1.00;;;;;;4953709;28;20199;-85
2023/11/25 05:12:19;;;;;;;6.38;2.17;;;2.10;1.00;;;;;;4962100;28;20215;-84
2023/11/25 05:14:46;;;;;;;3.53;1.92;;;1.90;1.00;;;;;;4957895;28;20268;-86
2023/11/25 05:17:13;;;;;;;2.88;1.40;;;1.70;1.00;;;;;;4948833;29;20209;-86
2023/11/25 05:19:40;;;;;;;2.63;2.08;;;;;;;;;;4946386;29;20218;-87
2023/11/25 05:22:07;;;;;;;4.63;1.52;;;2.10;1.00;;;;;;4948565;29;20310;-86
2023/11/25 05:24:34;;;;;;;4.70;1.85;;;2.00;1.00;;;;;;4952820;29;20211;-87
2023/11/25 05:27:01;;;;;;;6.15;2.03;;;;;;;;;;4947501;29;20217;-87
2023/11/25 05:29:30;;;;;;;3.92;1.90;;;2.00;1.00;;;;;;4957402;28;20235;-85
2023/11/25 05:31:57;;;;;;;5.05;1.98;;;1.80;1.00;;;;;;4954846;28;20295;-87
2023/11/25 05:34:24;;;;;;;10.18;2.40;;;2.00;1.00;;;;;;4943849;29;20217;-87
2023/11/25 05:36:51;;;;;;;7.60;1.58;;;1.40;1.00;;;;;;4943614;29;20255;-87
2023/11/25 05:39:24;;;;;;;2.42;2.13;;;1.60;99.90;;;;;;4942715;29;20239;-88
2023/11/25 05:41:53;;;;;;;4.75;2.00;;;;;;;;;;4947186;29;20242;-87
2023/11/25 05:44:20;;;;;;;3.80;1.98;;;1.90;1.00;;;;;;4956929;29;20275;-88
2023/11/25 05:46:48;;;;;;;2.97;1.95;;;1.90;1.00;;;;;;4951307;29;20257;-88
2023/11/25 05:49:15;;;;;;;10.00;2.40;;;1.70;1.00;;;;;;4941362;29;20312;-87
2023/11/25 05:51:45;;;;;;;2.75;1.90;;;1.90;1.00;;;;;;4957286;28;20225;-84
2023/11/25 05:54:13;;;;;;;4.45;1.35;;;1.90;1.00;;;;;;4961134;28;20223;-85
2023/11/25 05:56:40;;;;;;;5.68;1.63;;;1.50;99.90;;;;;;4961330;28;20231;-87
2023/11/25 05:59:11;;;;;;;5.00;1.58;;;1.50;1.00;;;;;;4958888;28;20226;-88
2023/11/25 06:01:39;;;;;;;5.63;1.83;;;1.70;1.00;;;;;;4943959;29;20258;-87
2023/11/25 06:04:07;;;;;;;3.83;1.25;;;1.50;1.00;;;;;;4942787;29;20297;-87
2023/11/25 06:06:34;;;;;;;10.90;3.75;;;1.30;1.00;;;;;;4941537;29;20254;-87
2023/11/25 06:09:01;;;;;;;15.93;8.18;;;1.60;1.00;;;;;;4941758;29;20217;-87
2023/11/25 06:11:29;;;;;;;3.50;2.20;;;1.40;99.90;;;;;;4946524;28;20270;-85
2023/11/25 06:13:56;;;;;;;3.67;1.70;;;1.00;1.00;;;;;;4947324;29;20203;-86
2023/11/25 06:16:24;;;;;;;2.38;1.40;;;1.70;1.00;;;;;;4940000;29;20237;-86
2023/11/25 06:18:51;;;;;;;4.43;1.85;;;;;;;;;;4940685;29;20298;-86
2023/11/25 06:21:20;;;;;;;6.68;1.83;;;1.10;1.00;;;;;;4941351;29;20226;-86
2023/11/25 06:23:47;;;;;;;2.67;1.70;;;1.10;1.00;;;;;;4942260;29;20219;-87
2023/11/25 06:26:14;;;;;;;5.38;2.58;;;1.40;1.00;;;;;;4942892;29;20267;-86
2023/11/25 06:28:41;;;;;;;15.63;2.15;;;1.70;1.00;;;;;;4943312;29;20230;-86
2023/11/25 06:31:09;;;;;;;3.05;1.27;;;;;;;;;;4959475;28;20194;-84
2023/11/25 06:33:36;;;;;;;7.20;1.92;;;;;;;;;;4959368;29;20202;-86
2023/11/25 06:36:03;;;;;;;2.35;1.77;;;1.20;99.90;;;;;;4960538;29;20287;-84
2023/11/25 06:38:31;;;;;;;4.88;1.58;;;1.40;1.00;;;;;;4959901;28;20198;-85
2023/11/25 06:40:58;;;;;;;4.82;1.95;;;1.10;1.00;;;;;;4960248;29;20184;-86
2023/11/25 06:43:25;;;;;;;6.70;1.63;;;1.00;1.00;;;;;;4958030;28;20246;-87
2023/11/25 06:45:53;;;;;;;4.45;2.15;;;1.30;1.00;;;;;;4943744;29;20238;-86
2023/11/25 06:48:20;;;;;;;3.47;2.20;;;1.30;99.90;;;;;;4943587;29;20239;-86
2023/11/25 06:50:48;;;;;;;2.10;1.90;;;1.10;99.90;;;;;;4943606;29;20203;-86
2023/11/25 06:53:14;;;;;;;4.53;1.75;;;1.00;1.00;;;;;;4945853;29;20270;-85
2023/11/25 06:55:42;;;;;;;7.78;2.03;;;1.40;1.00;;;;;;4948841;29;20223;-87
2023/11/25 06:58:10;;;;;;;5.53;1.95;;;1.00;1.00;;;;;;4947255;29;20215;-87
2023/11/25 07:00:38;;;;;;;9.85;1.55;;;1.20;1.00;;;;;;4947046;29;20311;-85
2023/11/25 07:03:05;;;;;;;10.32;2.00;;;1.40;99.90;;;;;;4941532;29;20223;-88
2023/11/25 07:05:31;;;;;;;4.50;2.10;;;0.80;99.90;;;;;;4941736;29;20234;-86
2023/11/25 07:07:58;;;;;;;3.05;2.55;;;1.00;99.90;;;;;;4941546;29;20226;-86
2023/11/25 07:10:32;;;;;;;6.13;1.90;;;1.10;99.90;;;;;;4941440;29;20202;-86
2023/11/25 07:13:01;;;;;;;4.97;2.30;;;;;;;;;;4942189;29;20187;-86
2023/11/25 07:15:29;;;;;;;2.70;1.85;;;1.40;99.90;;;;;;4941744;29;20262;-85
2023/11/25 07:17:56;;;;;;;5.93;2.20;;;1.00;1.00;;;;;;4941317;29;20214;-87
2023/11/25 07:20:23;;;;;;;6.15;2.40;;;1.40;1.00;;;;;;4944696;29;20194;-87
2023/11/25 07:22:50;;;;;;;9.43;2.55;;;1.30;99.90;;;;;;4955187;29;20210;-88
2023/11/25 07:25:18;;;;;;;6.55;2.22;;;;;;;;;;4940618;29;20219;-87
2023/11/25 07:27:47;;;;;;;2.15;1.95;;;1.20;99.90;;;;;;4939493;29;20223;-87
2023/11/25 07:30:16;;;;;;;4.22;1.77;;;1.30;99.90;;;;;;4955136;29;20203;-87
2023/11/25 07:32:44;;;;;;;5.45;1.90;;;1.10;99.90;;;;;;4941788;29;20206;-87
2023/11/25 07:35:11;;;;;;;4.40;2.05;;;;;;;;;;4957108;29;20241;-86
2023/11/25 07:37:38;;;;;;;7.63;1.80;;;;;;;;;;4954998;29;20206;-87
2023/11/25 07:40:09;;;;;;;6.43;2.10;;;0.90;99.90;;;;;;4940591;29;20242;-87
2023/11/25 07:42:37;;;;;;;4.70;2.10;;;;;;;;;;4939855;29;20681;-87
2023/11/25 07:45:08;;;;;;;4.85;1.63;;;1.00;99.90;;;;;;4942406;29;20776;-86
2023/11/25 07:47:37;;;;;;;2.97;1.77;;;2.40;25.20;;;;;;4952547;28;20269;-86
2023/11/25 07:50:04;;;;;;;9.88;2.08;;;1.60;99.90;;;;;;4963314;28;20215;-87
2023/11/25 07:52:31;;;;;;;4.25;1.90;;;1.60;99.90;;;;;;4949226;29;20243;-87
2023/11/25 07:54:58;;;;;;;4.65;2.13;;;1.50;99.90;;;;;;4942454;29;20602;-87
2023/11/25 07:57:26;;;;;;;2.47;1.80;;;;;;;;;;4943362;29;20271;-87
2023/11/25 07:59:53;;;;;;;5.80;1.88;;;1.30;99.90;;;;;;4942176;29;20206;-87
2023/11/25 08:02:20;;;;;;;4.78;1.73;;;1.30;99.90;;;;;;4943002;29;20595;-87
2023/11/25 08:04:48;;;;;;;3.45;2.20;;;1.30;1.00;;;;;;4942206;29;20294;-88
2023/11/25 08:07:15;;;;;;;3.00;2.03;;;1.50;99.90;;;;;;4945815;29;20270;-88
2023/11/25 08:09:42;;;;;;;5.20;3.10;;;1.30;99.90;;;;;;4959782;29;20203;-87
2023/11/25 08:12:10;;;;;;;7.03;1.95;;;1.10;99.90;;;;;;4961478;29;20259;-86
2023/11/25 08:14:37;;;;;;;4.10;1.85;;;1.20;99.90;;;;;;4957662;29;20214;-86
2023/11/25 08:17:04;;;;;;;2.05;1.60;;;1.00;99.90;;;;;;4944821;29;20242;-87
2023/11/25 08:19:35;;;;;;;1.55;1.25;;;1.30;99.90;;;;;;4947217;29;20238;-86
2023/11/25 08:22:16;;;;;;;3.47;2.28;;;1.30;1.00;;;;;;4945972;29;20302;-88
2023/11/25 08:24:43;;;;;;;3.28;1.90;;;0.90;97.60;;;;;;4943046;29;20196;-87
2023/11/25 08:27:11;;;;;;;7.05;1.95;;;;;;;;;;4942809;29;20207;-87
2023/11/25 08:29:37;;;;;;;3.67;2.20;;;1.40;25.80;;;;;;4943286;29;20210;-88
2023/11/25 08:32:05;;;;;;;1.45;1.25;;;1.70;25.80;;;;;;4948592;28;20259;-87
2023/11/25 08:34:32;;;;;;;2.58;2.30;;;1.70;45.10;;;;;;4962108;28;20217;-86
2023/11/25 08:36:59;;;;;;;6.47;2.90;;;1.30;3.20;;;;;;4962879;28;20204;-86
2023/11/25 08:39:28;;;;;;;15.13;2.75;;;1.30;1.00;;;;;;4952841;29;20218;-88
2023/11/25 08:41:57;;;;;;;9.48;2.22;;;1.50;1.00;;;;;;4951773;29;20211;-88
2023/11/25 08:44:25;;;;;;;1.17;1.08;;;;;;;;;;4956919;28;20223;-85
2023/11/25 08:46:53;;;;;;;3.85;1.63;;;2.10;1.00;;;;;;4962858;28;20235;-86
2023/11/25 08:49:21;;;;;;;5.40;1.80;;;1.80;1.00;;;;;;4962642;28;20198;-86
2023/11/25 08:51:50;;;;;;;1.95;1.65;;;2.00;99.90;;;;;;4962615;28;20198;-84
2023/11/25 08:54:18;;;;;;;4.93;2.33;;;2.40;1.00;;;;;;4961592;28;20195;-86
2023/11/25 08:56:48;;;;;;;4.75;1.10;;;1.90;1.00;;;;;;4961462;28;20214;-88
2023/11/25 08:59:20;;;;;;;2.70;1.52;;;2.30;1.00;;;;;;4960472;28;20202;-88
2023/11/25 09:01:47;;;;;;;4.97;1.60;;;2.30;1.00;;;;;;4956094;29;20223;-87
2023/11/25 09:04:19;;;;;;;4.35;1.45;;;2.00;1.00;;;;;;4955231;29;20223;-88
2023/11/25 09:06:47;;;;;;;4.30;1.48;;;2.20;99.90;;;;;;4954175;29;20234;-88
2023/11/25 09:09:15;;;;;;;1.73;1.40;;;2.30;99.90;;;;;;4951851;29;20196;-87
2023/11/25 09:11:43;;;;;;;5.10;1.88;;;2.10;99.90;;;;;;4947883;29;20218;-87
2023/11/25 09:14:11;;;;;;;6.47;1.90;;;2.30;99.90;;;;;;4950056;29;20207;-88
2023/11/25 09:16:38;;;;;;;8.70;2.40;;;2.80;1.00;;;;;;4948225;29;20234;-88
2023/11/25 09:19:05;;;;;;;7.13;2.78;;;2.40;99.90;;;;;;4945697;29;20619;-87
2023/11/25 09:21:32;;;;;;;3.28;1.67;;;2.90;99.90;;;;;;4944044;29;20219;-88
2023/11/25 09:23:59;;;;;;;2.03;1.50;;;2.70;99.90;;;;;;4945963;29;20223;-87
2023/11/25 09:26:26;;;;;;;6.30;2.28;;;2.30;99.90;;;;;;4944249;29;20665;-88
2023/11/25 09:28:54;;;;;;;8.10;2.22;;;2.50;99.90;;;;;;4943544;29;20211;-84
2023/11/25 09:31:23;;;;;;;8.90;3.03;;;2.70;1.00;;;;;;4943840;29;20278;-86
2023/11/25 09:33:51;;;;;;;3.53;2.05;;;2.70;99.90;;;;;;4942126;29;20211;-87
2023/11/25 09:36:18;;;;;;;3.47;2.00;;;3.00;99.90;;;;;;4942836;29;20227;-88
2023/11/25 09:38:45;;;;;;;2.10;1.90;;;2.60;99.90;;;;;;4943455;29;20266;-87
2023/11/25 09:41:12;;;;;;;5.13;2.15;;;3.10;99.90;;;;;;4949008;29;20653;-86
2023/11/25 09:43:40;;;;;;;2.72;1.95;;;3.00;99.90;;;;;;4946965;29;20243;-86
2023/11/25 09:46:07;;;;;;;2.78;2.33;;;2.60;99.90;;;;;;4946303;29;20269;-85
2023/11/25 09:48:35;;;;;;;4.63;2.00;;;2.60;99.90;;;;;;4950758;29;20536;-86
2023/11/25 09:51:13;;;;;;;6.63;2.40;;;2.70;1.00;;;;;;4948426;29;20270;-87
2023/11/25 09:53:40;;;;;;;3.70;2.35;;;2.80;1.00;;;;;;4945971;29;20628;-86
2023/11/25 09:56:10;;;;;;;4.68;2.60;;;2.80;99.90;;;;;;4958957;29;20227;-86
2023/11/25 09:58:38;;;;;;;9.07;2.28;;;3.10;99.90;;;;;;4953633;29;20199;-86
2023/11/25 10:01:05;;;;;;;2.17;1.98;;;2.90;99.90;;;;;;4944056;29;20223;-86
2023/11/25 10:03:37;;;;;;;3.40;1.92;;;2.90;84.10;;;;;;4946013;29;20222;-86
2023/11/25 10:06:05;;;;;;;7.32;2.92;;;3.00;99.90;;;;;;4945244;29;20721;-87
2023/11/25 10:08:34;;;;;;;6.97;2.20;;;3.00;99.90;;;;;;4952183;28;20191;-85
2023/11/25 10:11:05;;;;;;;5.65;2.78;;;2.40;99.90;;;;;;4953754;28;20195;-88
2023/11/25 10:13:36;;;;;;;5.00;2.70;;;2.70;99.90;;;;;;4945717;29;20226;-90
2023/11/25 10:23:08;;;;;;;6.45;2.30;;;3.40;43.50;;;;;;4896577;29;20209;-89
2023/11/25 10:29:13;;;;;;;4.05;2.05;;;;;;;;;;4946334;29;20214;-88
2023/11/25 10:35:08;;;;;;;5.55;2.10;;;;;;;;;;4948034;29;20214;-87
2023/11/25 10:37:42;;;;;;;5.50;2.20;;;;;;;;;;4950907;29;20224;-90
2023/11/25 10:40:10;;;;;;;10.35;3.63;;;;;;;;;;4947799;29;20595;-87
2023/11/25 10:42:45;;;;;;;8.45;2.25;;;;;;;;;;4946302;29;20206;-88
2023/11/25 10:49:01;;;;;;;3.42;3.00;;;;;;;;;;4949267;29;20211;-89
2023/11/25 10:51:37;;;;;;;13.20;3.38;;;;;;;;;;4946444;29;20202;-88
2023/11/25 10:54:16;;;;;;;3.20;2.30;;;;;;;;;;4953765;29;20211;-88
2023/11/25 10:56:48;;;;;;;8.25;3.33;;;;;;;;;;4954522;28;20233;-88
2023/11/25 10:59:19;;;;;;;6.38;3.00;;;3.80;99.90;;;;;;4945708;29;20214;-88
2023/11/25 11:01:46;;;;;;;4.10;3.10;;;;;;;;;;4949346;28;20313;-85
2023/11/25 11:04:19;;;;;;;3.92;2.60;;;4.10;99.90;;;;;;4960054;28;20294;-86
2023/11/25 11:06:49;;;;;;;4.80;2.90;;;4.20;99.90;;;;;;4957151;29;20233;-87
2023/11/25 11:09:22;;;;;;;3.70;2.83;;;4.40;99.90;;;;;;4955495;29;20195;-87
2023/11/25 11:11:53;;;;;;;2.72;2.25;;;4.10;1.00;;;;;;4947369;29;20246;-87
2023/11/25 11:14:22;;;;;;;5.05;3.20;;;3.60;99.90;;;;;;4949172;29;20219;-88
2023/11/25 11:16:59;;;;;;;9.98;2.83;;;3.80;99.90;;;;;;4946674;29;20231;-88
2023/11/25 11:19:34;;;;;;;6.63;3.47;;;3.90;99.90;;;;;;4950120;29;20206;-87
2023/11/25 11:22:06;;;;;;;10.60;4.22;;;4.00;99.90;;;;;;4949018;29;20249;-86
2023/11/25 11:24:45;;;;;;;6.72;3.80;;;3.70;1.00;;;;;;4948824;29;20222;-87
2023/11/25 11:27:20;;;;;;;6.28;2.38;;;3.90;99.90;;;;;;4951701;29;20187;-88
2023/11/25 11:29:53;;;;;;;5.68;2.63;;;3.80;1.00;;;;;;4950643;29;20271;-87
2023/11/25 11:32:22;;;;;;;10.60;3.17;;;3.80;99.90;;;;;;4954811;29;20203;-90
2023/11/25 11:39:28;;;;;;;3.22;2.15;;;3.80;99.90;;;;;;4935331;28;20283;-87
2023/11/25 11:41:58;;;;;;;8.90;2.83;;;;;;;;;;4906198;29;20215;-84
2023/11/25 11:44:25;;;;;;;5.30;2.05;;;;;;;;;;4959502;29;20234;-88
2023/11/25 11:46:53;;;;;;;3.92;2.53;;;;;;;;;;4950065;29;20385;-87
2023/11/25 11:49:20;;;;;;;8.52;2.97;;;;;;;;;;4959207;28;20205;-83
2023/11/25 11:52:01;;;;;;;5.90;2.28;;;;;;;;;;4963717;28;20191;-83
2023/11/25 11:54:31;;;;;;;2.70;2.35;;;;;;;;;;4954703;28;20567;-86
2023/11/25 11:57:03;;;;;;;5.10;2.80;;;;;;;;;;4950362;29;20223;-88
2023/11/25 12:00:11;;;;;;;1.77;1.67;;;3.60;1.00;;;;;;4953556;29;20211;-88
2023/11/25 12:02:42;;;;;;;2.75;2.05;;;3.10;40.60;;;;;;4960312;29;20207;-87
2023/11/25 12:05:10;;;;;;;2.55;2.17;;;3.50;99.90;;;;;;4957807;29;20231;-86
2023/11/25 12:07:37;;;;;;;4.00;2.20;;;3.30;99.90;;;;;;4960088;29;20239;-86
2023/11/25 12:10:05;;;;;;;3.47;1.50;;;2.90;1.00;;;;;;4957633;29;20293;-88
2023/11/25 12:12:47;;;;;;;2.97;1.52;;;3.60;99.90;;;;;;4950304;29;20577;-88
2023/11/25 12:15:16;;;;;;;2.00;1.90;;;;;;;;;;4948613;29;20242;-88
2023/11/25 12:17:43;;;;;;;3.08;2.20;;;3.20;27.60;;;;;;4947427;29;20286;-87
2023/11/25 12:20:14;;;;;;;2.22;1.63;;;3.10;88.30;;;;;;4947537;29;20211;-86
2023/11/25 12:22:42;;;;;;;2.88;2.00;;;3.10;74.60;;;;;;4945747;29;20258;-87
2023/11/25 12:25:13;;;;;;;2.05;1.55;;;3.10;99.90;;;;;;4945967;29;20671;-88
2023/11/25 12:27:49;;;;;;;2.22;2.13;;;2.80;99.90;;;;;;4945603;29;20218;-87
2023/11/25 12:30:16;;;;;;;3.40;2.47;;;2.70;1.00;;;;;;4949798;29;20226;-88
2023/11/25 12:32:43;;;;;;;2.17;1.73;;;2.60;1.00;;;;;;4944702;29;20274;-86
2023/11/25 12:35:13;;;;;;;2.47;2.25;;;;;;;;;;4945371;29;20229;-87
2023/11/25 12:37:43;;;;;;;2.85;2.25;;;2.10;99.90;;;;;;4955237;28;20195;-86
2023/11/25 12:40:21;;;;;;;2.30;2.10;;;2.60;99.90;;;;;;4962597;28;20187;-87
2023/11/25 12:42:51;;;;;;;2.22;1.98;;;2.40;1.00;;;;;;4953105;29;20620;-87
2023/11/25 12:45:35;;;;;;;2.53;2.33;;;2.60;1.00;;;;;;4951621;29;20231;-87
2023/11/25 12:48:05;;;;;;;4.32;2.38;;;2.90;1.00;;;;;;4946536;29;20211;-87
2023/11/25 12:50:32;;;;;;;2.22;2.13;;;2.30;1.00;;;;;;4946213;29;20218;-86
2023/11/25 12:53:05;;;;;;;7.60;6.10;;;2.80;1.00;;;;;;4947062;29;20207;-87
2023/11/25 12:55:38;;;;;;;2.92;2.63;;;;;;;;;;4948461;29;20250;-87
2023/11/25 12:58:08;;;;;;;2.92;2.63;;;2.60;1.00;;;;;;4956077;29;20234;-86
2023/11/25 13:00:36;;;;;;;2.80;2.60;;;2.40;1.00;;;;;;4954584;28;20250;-86
2023/11/25 13:03:03;;;;;;;3.60;3.30;;;2.70;1.00;;;;;;4947719;29;20738;-86
2023/11/25 13:05:32;;;;;;;3.25;2.95;;;2.40;1.00;;;;;;4952197;28;20241;-87
2023/11/25 13:07:59;;;;;;;2.50;2.30;;;2.40;1.00;;;;;;4954513;29;20225;-86
2023/11/25 13:10:27;;;;;;;3.70;3.03;;;;;;;;;;4960491;29;20199;-87
2023/11/25 13:12:54;;;;;;;8.55;5.60;;;2.50;1.00;;;;;;4960989;29;20227;-86
2023/11/25 13:15:23;;;;;;;3.90;3.38;;;2.20;1.00;;;;;;4952057;29;20222;-88
2023/11/25 13:17:50;;;;;;;3.50;3.15;;;2.30;1.00;;;;;;4947856;29;20218;-87
2023/11/25 13:20:17;;;;;;;4.85;3.55;;;2.30;1.00;;;;;;4946665;29;20207;-88
2023/11/25 13:22:44;;;;;;;2.70;2.50;;;2.90;1.00;;;;;;4946196;29;20219;-88
2023/11/25 13:25:12;;;;;;;2.55;2.35;;;2.50;1.00;;;;;;4945609;29;20231;-87
2023/11/25 13:27:39;;;;;;;4.55;3.50;;;;;;;;;;4947073;29;20290;-88
2023/11/25 13:30:07;;;;;;;3.30;3.00;;;2.40;1.00;;;;;;4951034;29;20214;-87
2023/11/25 13:32:35;;;;;;;3.05;2.85;;;2.80;1.00;;;;;;4945622;29;20302;-87
2023/11/25 13:35:06;;;;;;;3.55;3.05;;;;;;;;;;4958456;29;20222;-88
2023/11/25 13:37:35;;;;;;;3.95;3.45;;;2.80;1.00;;;;;;4961529;28;20176;-86
2023/11/25 13:40:06;;;;;;;4.47;4.07;;;;;;;;;;4959502;29;20199;-88
2023/11/25 13:42:34;;;;;;;4.50;4.10;;;;;;;;;;4948114;29;20195;-88
2023/11/25 13:45:00;;;;;;;5.28;4.78;;;3.10;1.00;;;;;;4947768;29;20234;-89
2023/11/25 13:47:27;;;;;;;4.53;4.10;;;2.90;1.00;;;;;;4948207;29;20215;-86
2023/11/25 13:49:56;;;;;;;7.10;4.75;;;2.30;1.00;;;;;;4947187;29;20275;-88
2023/11/25 13:52:22;;;;;;;5.60;4.15;;;2.90;1.00;;;;;;4950013;29;20211;-88
2023/11/25 13:54:49;;;;;;;5.35;4.15;;;;;;;;;;4960788;29;20258;-86
2023/11/25 13:57:16;;;;;;;5.28;3.63;;;2.40;1.00;;;;;;4960912;29;20194;-85
2023/11/25 13:59:43;;;;;;;3.42;3.13;;;2.50;1.00;;;;;;4948923;29;20211;-88
2023/11/25 14:02:11;;;;;;;4.60;4.10;;;;;;;;;;4954343;28;20218;-83
2023/11/25 14:04:38;;;;;;;4.93;4.25;;;2.20;1.00;;;;;;4945716;29;20228;-85
2023/11/25 14:07:07;;;;;;;5.55;4.25;;;2.40;99.90;;;;;;4945882;29;20246;-88
2023/11/25 14:09:34;;;;;;;5.38;4.88;;;1.80;99.90;;;;;;4946272;29;20290;-89
2023/11/25 14:12:02;;;;;;;5.13;4.32;;;2.50;1.00;;;;;;4952503;29;20278;-87
2023/11/25 14:14:29;;;;;;;4.32;3.90;;;;;;;;;;4954321;29;20234;-83
2023/11/25 14:16:58;;;;;;;4.57;4.18;;;2.00;1.00;;;;;;4949618;29;20211;-87
2023/11/25 14:19:25;;;;;;;4.55;4.03;;;2.60;1.00;;;;;;4948207;29;20323;-86
2023/11/25 14:21:52;;;;;;;6.80;4.05;;;2.40;1.00;;;;;;4947218;29;20215;-86
2023/11/25 14:24:21;;;;;;;5.00;3.97;;;;;;;;;;4945561;29;20302;-86
2023/11/25 14:26:48;;;;;;;5.25;4.75;;;2.60;1.00;;;;;;4945809;29;20287;-88
2023/11/25 14:29:15;;;;;;;4.60;4.10;;;2.50;1.00;;;;;;4945871;29;20215;-87
2023/11/25 14:31:42;;;;;;;72.00;43.50;;;2.50;1.00;;;;;;4946236;29;20282;-87
2023/11/25 14:34:09;;;;;;;9.20;4.40;;;2.20;1.00;;;;;;4947393;29;20195;-87
2023/11/25 14:39:32;;;;;;;4.47;3.65;;;;;;;;;;4951818;29;20243;-87
2023/11/25 14:41:59;;;;;;;22.33;16.48;;;;;;;;;;4944973;29;20206;-88
2023/11/25 14:44:27;;;;;;;7.50;5.43;;;;;;;;;;4947366;29;20318;-87
2023/11/25 14:46:54;;;;;;;4.55;4.15;;;;;;;;;;4947550;29;20590;-87
2023/11/25 14:49:21;;;;;;;4.72;3.95;;;;;;;;;;4959651;28;20210;-84
2023/11/25 14:51:48;;;;;;;5.55;5.13;;;;;;;;;;4959735;28;20203;-85
2023/11/25 14:54:15;;;;;;;4.50;4.10;;;2.20;1.00;;;;;;4955731;29;20234;-87
2023/11/25 14:56:45;;;;;;;13.40;5.53;;;;;;;;;;4956168;29;20355;-86
2023/11/25 14:59:12;;;;;;;7.75;4.55;;;;;;;;;;4953458;29;20195;-86
2023/11/25 15:01:39;;;;;;;6.22;4.28;;;;;;;;;;4960871;29;20234;-88
2023/11/25 15:04:06;;;;;;;7.45;5.32;;;2.40;1.00;;;;;;4959890;29;20249;-87
2023/11/25 15:06:33;;;;;;;9.15;6.35;;;2.30;1.00;;;;;;4961633;29;20229;-87
2023/11/25 15:09:00;;;;;;;7.88;5.35;;;2.40;1.00;;;;;;4963296;29;20205;-88
2023/11/25 15:11:27;;;;;;;8.32;5.70;;;2.40;1.00;;;;;;4958285;29;20213;-88
2023/11/25 15:13:55;;;;;;;8.52;5.50;;;2.20;99.90;;;;;;4952490;29;20211;-87
2023/11/25 20:57:39;;;;;;;3.20;2.90;;;;;;;;;;3142938;26;20266;-85
2023/11/25 21:00:09;;;;;;;8.43;4.10;;;1.40;1.00;;;;;;4965134;28;20260;-85
2023/11/25 21:02:38;;;;;;;5.60;3.17;;;1.50;1.00;;;;;;4967009;29;20211;-85
2023/11/25 21:05:05;;;;;;;3.10;2.40;;;1.90;1.00;;;;;;4966189;29;20230;-84
2023/11/25 21:11:20;;;;;;;3.70;2.58;;;;;;;;;;4958309;23;20327;-88
2023/11/25 21:17:26;;;;;;;8.25;3.10;;;;;;;;;;4861020;29;20222;-89
2023/11/25 21:20:27;;;;;;;5.18;2.55;;;1.60;1.00;;;;;;4968842;29;20233;-88
2023/11/25 21:23:30;;;;;;;2.60;2.40;;;;;;;;;;4968729;29;20206;-88
2023/11/25 21:26:28;;;;;;;2.70;2.45;;;1.60;1.00;;;;;;4967985;29;20245;-88
2023/11/25 21:29:12;;;;;;;2.65;2.40;;;;;;;;;;4967767;29;20592;-87
2023/11/25 21:31:57;;;;;;;2.75;1.83;;;;;;;;;;4968217;29;20265;-88
2023/11/25 21:34:40;;;;;;;2.88;2.65;;;;;;;;;;4966594;29;20285;-88
2023/11/25 21:37:07;;;;;;;5.15;2.50;;;;;;;;;;4966319;29;20191;-90
2023/11/25 21:39:37;;;;;;;3.20;2.60;;;1.50;1.00;;;;;;4965504;29;20230;-89
2023/11/25 21:42:29;;;;;;;4.45;2.75;;;1.50;1.00;;;;;;4970964;29;20213;-89
2023/11/25 21:47:55;;;;;;;4.65;2.67;;;;;;;;;;4902620;29;20253;-87
2023/11/25 21:50:25;;;;;;;2.92;2.58;;;;;;;;;;4972443;29;20312;-87
2023/11/25 21:53:12;;;;;;;;;;;;;;;;;;;;;
2023/11/25 21:55:56;;;;;;;;;;;;;;;;;;;;;
2023/11/25 21:58:36;;;;;;;8.60;4.68;;;;;;;;;;4964306;28;20210;-87
2023/11/25 22:01:09;;;;;;;5.50;2.75;;;;;;;;;;4973589;29;20236;-87
2023/11/25 22:04:05;;;;;;;2.55;2.35;;;1.50;1.00;;;;;;4977044;28;20297;-88
2023/11/25 22:06:54;;;;;;;2.67;2.08;;;;;;;;;;4969562;29;20222;-89
2023/11/25 22:09:33;;;;;;;3.28;1.83;;;;;;;;;;4968652;29;20182;-88
2023/11/25 22:12:06;;;;;;;2.38;2.15;;;;;;;;;;4968171;29;20239;-87
2023/11/25 22:14:40;;;;;;;2.13;1.92;;;;;;;;;;4966745;29;20222;-88
2023/11/25 22:17:12;;;;;;;2.42;2.22;;;;;;;;;;4967308;28;20205;-88
2023/11/25 22:19:40;;;;;;;2.17;2.00;;;;;;;;;;4976765;28;20210;-88
2023/11/25 22:22:26;;;;;;;2.95;2.25;;;;;;;;;;4965073;29;20241;-87
2023/11/25 22:24:59;;;;;;;2.45;1.50;;;;;;;;;;4973013;29;20262;-88
2023/11/25 22:27:41;;;;;;;6.38;2.78;;;;;;;;;;4969649;29;20228;-89
2023/11/25 22:30:11;;;;;;;2.45;1.73;;;;;;;;;;4962935;28;20282;-88
2023/11/25 22:32:43;;;;;;;2.95;2.40;;;;;;;;;;4963849;29;20205;-88
2023/11/25 22:35:10;;;;;;;3.20;1.80;;;;;;;;;;4962242;29;20293;-88
2023/11/25 22:37:38;;;;;;;2.13;1.92;;;;;;;;;;4962894;29;20614;-88
2023/11/25 22:40:10;;;;;;;1.75;1.63;;;;;;;;;;4961957;29;20238;-89
2023/11/25 22:42:40;;;;;;;1.83;1.58;;;;;;;;;;4962313;29;20194;-88
2023/11/25 22:45:09;;;;;;;4.00;2.25;;;;;;;;;;4962801;29;20261;-88
2023/11/25 22:48:00;;;;;;;3.42;1.95;;;;;;;;;;4962336;29;20319;-87
2023/11/25 22:51:13;;;;;;;3.58;2.60;;;1.40;1.00;;;;;;4962065;29;20232;-89
2023/11/25 22:53:53;;;;;;;1.92;1.45;;;;;;;;;;4963766;29;20206;-87
2023/11/25 22:56:32;;;;;;;1.48;1.30;;;;;;;;;;4969943;28;20217;-88
2023/11/25 23:04:35;;;;;;;1.35;1.25;;;;;;;;;;4971154;28;20235;-88
2023/11/25 23:07:09;;;;;;;2.42;1.35;;;;;;;;;;4966373;29;20246;-89
2023/11/25 23:09:39;;;;;;;2.45;1.20;;;;;;;;;;4963296;29;20354;-88
2023/11/25 23:12:16;;;;;;;2.67;2.03;;;;;;;;;;4963730;29;20201;-88
2023/11/25 23:18:02;;;;;;;2.58;2.47;;;;;;;;;;4947385;29;20228;-89
2023/11/25 23:26:24;;;;;;;1.83;1.70;;;;;;;;;;4889210;29;20220;-89
2023/11/25 23:29:26;;;;;;;;;;;;;;;;;;;;;
2023/11/25 23:32:22;;;;;;;1.83;1.20;;;1.30;99.90;;;;;;4891631;29;20295;-87
2023/11/25 23:35:29;;;;;;;1.42;1.35;;;;;;;;;;4883432;29;20216;-89
2023/11/25 23:38:00;;;;;;;2.33;1.98;;;;;;;;;;4935542;29;20278;-89
2023/11/25 23:40:27;;;;;;;2.20;1.40;;;;;;;;;;4981126;29;20736;-89
2023/11/25 23:42:57;;;;;;;4.25;2.38;;;;;;;;;;4982016;28;20202;-86
2023/11/25 23:45:30;;;;;;;1.67;1.55;;;;;;;;;;4982807;28;20183;-88
2023/11/25 23:48:02;;;;;;;1.42;1.33;;;;;;;;;;4982582;28;20206;-89
2023/11/25 23:50:31;;;;;;;1.52;1.42;;;;;;;;;;4979263;28;20226;-87
2023/11/25 23:55:40;;;;;;;2.45;2.03;;;;;;;;;;4907611;29;20212;-88
2023/11/25 23:58:30;;;;;;;3.95;2.40;;;;;;;;;;4965149;29;20206;-88
